Time;durP1;ratioP1;P1;durP2;ratioP2;P2;SDS_P1;SDS_P2;PMS_P1;PMS_P2;Temp;Humidity;BMP_temperature;BMP_pressure;BME280_temperature;BME280_humidity;BME280_pressure;Samples;Min_cycle;Max_cycle;Signal;HPM_P1;HPM_P2
2022/11/16 05:48:31;;;;;;;;;2.75;2.00;;;;;10.90;67.22;99497.66;6134678;21;1412582;-66
2022/11/16 05:50:59;;;;;;;;;2.25;2.00;;;;;10.90;67.26;99497.66;6340739;22;45308;-66
2022/11/16 05:53:25;;;;;;;;;2.75;1.75;;;;;10.87;67.01;99488.09;6340881;22;45260;-66
2022/11/16 05:55:50;;;;;;;;;3.50;1.00;;;;;10.89;67.09;99498.56;6340901;22;45154;-66
2022/11/16 05:58:16;;;;;;;;;2.50;1.00;;;;;10.92;67.04;99494.97;6341024;22;45522;-66
2022/11/16 06:00:44;;;;;;;;;2.75;2.00;;;;;10.87;67.08;99488.09;6340305;22;45227;-66
2022/11/16 06:03:09;;;;;;;;;2.00;2.00;;;;;10.87;67.10;99487.25;6341089;22;45233;-66
2022/11/16 06:05:35;;;;;;;;;1.50;1.50;;;;;10.85;67.00;99494.34;6341159;22;46093;-66
2022/11/16 06:08:00;;;;;;;;;1.00;1.00;;;;;10.85;67.09;99489.06;6341132;22;45270;-66
2022/11/16 06:10:25;;;;;;;;;3.00;1.00;;;;;10.82;66.93;99499.72;6340199;22;46021;-67
2022/11/16 06:12:51;;;;;;;;;2.00;0.75;;;;;10.80;67.14;99486.59;6341045;22;45202;-67
2022/11/16 06:15:16;;;;;;;;;2.75;2.00;;;;;10.73;67.10;99485.13;6341354;22;45251;-67
2022/11/16 06:17:42;;;;;;;;;1.25;1.25;;;;;10.71;67.01;99487.78;6342406;22;45245;-66
2022/11/16 06:20:07;;;;;;;;;2.00;2.00;;;;;10.68;67.22;99492.31;6341528;22;55170;-66
2022/11/16 06:22:33;;;;;;;;;2.25;1.75;;;;;10.64;67.10;99495.94;6342481;22;45183;-66
2022/11/16 06:24:58;;;;;;;;;3.00;1.00;;;;;10.61;67.23;99491.63;6340530;22;45348;-66
2022/11/16 06:27:23;;;;;;;;;2.25;2.25;;;;;10.60;67.17;99491.69;6342067;22;45224;-67
2022/11/16 06:29:48;;;;;;;;;4.25;2.75;;;;;10.64;67.16;99496.81;6341563;22;47105;-67
2022/11/16 06:32:14;;;;;;;;;1.00;1.00;;;;;10.61;67.10;99496.91;6337794;22;45317;-67
2022/11/16 06:34:39;;;;;;;;;2.25;2.25;;;;;10.61;67.18;99490.78;6328414;22;45416;-67
2022/11/16 06:37:04;;;;;;;;;2.75;2.25;;;;;10.57;67.35;99493.50;6338515;22;45346;-68
2022/11/16 06:39:30;;;;;;;;;2.75;2.75;;;;;10.60;67.19;99494.31;6336513;22;47365;-66
2022/11/16 06:41:55;;;;;;;;;4.75;2.75;;;;;10.56;67.37;99493.56;6336482;22;45335;-68
2022/11/16 06:44:20;;;;;;;;;6.25;3.00;;;;;10.54;67.35;99482.25;6338751;22;45326;-70
2022/11/16 06:46:46;;;;;;;;;2.00;2.00;;;;;10.56;67.19;99483.94;6338373;22;45596;-68
2022/11/16 06:49:11;;;;;;;;;2.00;2.00;;;;;10.59;67.45;99484.72;6337775;22;46215;-68
2022/11/16 06:51:36;;;;;;;;;2.75;1.75;;;;;10.58;67.45;99489.13;6338472;22;45108;-65
2022/11/16 06:54:02;;;;;;;;;1.25;1.25;;;;;10.58;67.51;99489.13;6338115;22;45155;-66
2022/11/16 06:56:28;;;;;;;;;3.00;2.00;;;;;10.60;67.50;99489.06;6337535;22;45673;-66
2022/11/16 06:58:56;;;;;;;;;5.50;3.00;;;;;10.59;67.60;99479.47;6337103;22;46023;-66
2022/11/16 07:01:21;;;;;;;;;2.00;2.00;;;;;10.59;67.91;99482.97;6338117;22;45326;-65
2022/11/16 07:03:46;;;;;;;;;2.75;2.50;;;;;10.60;67.88;99491.69;6336831;22;45403;-65
2022/11/16 07:06:12;;;;;;;;;4.00;2.75;;;;;10.64;67.61;99478.41;6340764;22;45715;-66
2022/11/16 07:08:38;;;;;;;;;3.25;2.00;;;;;10.64;67.76;99494.19;6338441;22;46281;-66
2022/11/16 07:11:05;;;;;;;;;3.00;3.00;;;;;10.64;67.73;99486.28;6341587;22;45345;-66
2022/11/16 07:13:35;;;;;;;;;6.75;3.25;;;;;10.71;67.76;99489.56;6340669;22;45313;-66
2022/11/16 07:16:06;;;;;;;;;5.00;4.25;;;;;10.73;67.83;99490.38;6341991;22;45398;-66
2022/11/16 07:18:36;;;;;;;;;3.50;2.25;;;;;10.76;67.88;99499.91;6341782;22;45623;-66
2022/11/16 07:21:10;;;;;;;;;3.00;2.00;;;;;10.73;67.87;99483.34;6339910;22;45274;-66
2022/11/16 07:23:37;;;;;;;;;5.00;4.50;;;;;10.79;67.98;99492.78;6341745;22;45371;-67
2022/11/16 07:26:05;;;;;;;;;4.50;4.00;;;;;10.87;67.94;99497.78;6340288;22;45368;-66
2022/11/16 07:28:30;;;;;;;;;2.00;1.50;;;;;10.88;68.01;99497.72;6340633;22;46060;-66
2022/11/16 07:31:02;;;;;;;;;2.00;2.00;;;;;10.88;67.97;99500.34;6342146;22;45188;-66
2022/11/16 07:33:28;;;;;;;;;2.00;2.00;;;;;10.89;67.65;99498.56;6342134;22;45290;-68
2022/11/16 07:35:53;;;;;;;;;4.50;2.50;;;;;10.95;68.08;99502.75;6341572;22;45428;-67
2022/11/16 07:38:18;;;;;;;;;1.00;0.00;;;;;10.95;68.10;99495.72;6341100;22;48973;-67
2022/11/16 07:40:44;;;;;;;;;4.00;2.00;;;;;10.99;67.92;99504.34;6341375;22;47749;-67
2022/11/16 07:43:11;;;;;;;;;3.00;2.00;;;;;11.02;68.08;99497.22;6339711;22;45267;-67
2022/11/16 07:45:37;;;;;;;;;4.00;3.00;;;;;11.09;68.28;99497.84;6341685;22;45361;-67
2022/11/16 07:48:02;;;;;;;;;5.75;3.25;;;;;11.16;68.04;99494.09;6327157;22;46188;-64
2022/11/16 07:50:27;;;;;;;;;2.00;2.00;;;;;11.21;68.25;99491.31;6335053;22;45328;-59
2022/11/16 07:52:54;;;;;;;;;4.25;3.25;;;;;11.26;68.43;99492.00;6337157;22;45332;-59
2022/11/16 07:55:19;;;;;;;;;3.00;1.00;;;;;11.32;68.32;99497.03;6335617;22;45251;-61
2022/11/16 07:57:45;;;;;;;;;2.00;2.00;;;;;11.38;68.31;99494.16;6338175;22;46058;-66
2022/11/16 08:00:10;;;;;;;;;4.75;3.25;;;;;11.41;68.25;99490.56;6337433;22;45419;-70
2022/11/16 08:02:36;;;;;;;;;1.00;1.00;;;;;11.50;68.29;99492.84;6337681;22;45392;-70
2022/11/16 08:05:01;;;;;;;;;2.25;2.25;;;;;11.51;68.28;99494.56;6336355;22;45494;-67
2022/11/16 08:07:26;;;;;;;;;1.75;1.75;;;;;11.58;68.37;99499.59;6337583;22;45581;-71
2022/11/16 08:09:52;;;;;;;;;4.25;3.00;;;;;11.63;68.25;99508.16;6335691;22;45347;-64
2022/11/16 08:12:17;;;;;;;;;3.00;1.25;;;;;11.68;68.26;99498.31;6337987;22;45340;-69
2022/11/16 08:14:42;;;;;;;;;4.00;3.50;;;;;11.80;68.31;99515.41;6338453;22;45401;-59
2022/11/16 08:17:08;;;;;;;;;4.00;3.00;;;;;11.83;68.22;99505.59;6336780;22;45953;-62
2022/11/16 08:19:33;;;;;;;;;5.00;3.00;;;;;11.87;68.00;99503.72;6326040;22;45350;-61
2022/11/16 08:21:59;;;;;;;;;3.25;3.00;;;;;11.92;68.31;99498.28;6337910;22;45494;-58
2022/11/16 08:24:24;;;;;;;;;2.50;2.50;;;;;11.97;68.06;99506.88;6335410;22;45957;-60
2022/11/16 08:26:49;;;;;;;;;4.00;2.50;;;;;12.03;68.00;99496.94;6337541;22;45372;-60
2022/11/16 08:29:15;;;;;;;;;3.75;3.00;;;;;12.10;68.37;99496.72;6338310;22;45360;-60
2022/11/16 08:31:43;;;;;;;;;4.50;3.25;;;;;12.23;68.31;99494.47;6337769;22;45451;-60
2022/11/16 08:34:08;;;;;;;;;5.75;5.00;;;;;12.31;67.99;99506.41;6334984;22;45373;-62
2022/11/16 08:36:34;;;;;;;;;2.00;2.00;;;;;12.38;67.90;99517.53;6337621;22;45314;-62
2022/11/16 08:38:59;;;;;;;;;4.00;3.00;;;;;12.39;67.91;99503.44;6336612;22;45135;-62
2022/11/16 08:41:25;;;;;;;;;7.50;4.50;;;;;12.39;68.09;99498.16;6336751;22;45508;-62
2022/11/16 08:43:52;;;;;;;;;4.50;3.00;;;;;12.42;67.60;99507.72;6337740;22;45386;-61
2022/11/16 08:46:17;;;;;;;;;7.25;6.00;;;;;12.46;67.90;99511.94;6337157;22;46164;-64
2022/11/16 08:48:43;;;;;;;;;6.25;4.75;;;;;12.51;67.96;99502.94;6328276;22;45305;-63
2022/11/16 08:51:14;;;;;;;;;7.75;4.75;;;;;12.50;67.69;99497.72;6340390;22;45364;-63
2022/11/16 08:53:40;;;;;;;;;5.50;2.50;;;;;12.48;67.73;99510.09;6340706;22;45269;-61
2022/11/16 08:56:08;;;;;;;;;5.75;4.75;;;;;12.44;67.92;99492.69;6340344;22;46114;-61
2022/11/16 08:58:34;;;;;;;;;7.25;6.50;;;;;12.47;67.87;99495.22;6339916;22;45243;-62
2022/11/16 09:01:15;;;;;;;;;11.00;4.75;;;;;12.51;67.96;99500.31;6339155;22;45252;-62
2022/11/16 09:03:41;;;;;;;;;9.50;8.00;;;;;12.59;67.71;99502.59;6338952;22;45507;-62
2022/11/16 09:06:08;;;;;;;;;5.50;3.75;;;;;12.60;67.60;99493.78;6340803;22;45770;-63
2022/11/16 09:08:36;;;;;;;;;9.00;9.00;;;;;12.61;67.42;99492.00;6312458;22;45268;-61
2022/11/16 09:11:10;;;;;;;;;5.50;4.25;;;;;12.60;67.50;99493.78;6340085;22;45328;-62
2022/11/16 09:13:35;;;;;;;;;6.75;4.50;;;;;12.58;67.50;99497.38;6341239;22;45267;-62
2022/11/16 09:16:01;;;;;;;;;8.50;5.75;;;;;12.58;67.65;99474.53;6340524;22;46799;-62
2022/11/16 09:18:28;;;;;;;;;5.00;5.00;;;;;12.59;67.67;99475.38;6341097;22;45328;-62
2022/11/16 09:20:54;;;;;;;;;4.75;4.50;;;;;12.61;67.75;99477.03;6341386;22;45225;-62
2022/11/16 09:23:19;;;;;;;;;3.00;3.00;;;;;12.59;67.96;99476.25;6341084;22;45147;-62
2022/11/16 09:25:47;;;;;;;;;5.50;3.25;;;;;12.65;67.53;99489.16;6340436;22;45899;-62
2022/11/16 09:28:16;;;;;;;;;3.25;3.25;;;;;12.68;67.81;99482.91;6340925;22;45336;-62
2022/11/16 09:30:43;;;;;;;;;4.75;4.25;;;;;12.67;67.60;99482.03;6341345;22;45271;-62
2022/11/16 09:33:08;;;;;;;;;3.00;3.00;;;;;12.68;67.58;99483.75;6340974;22;45469;-62
2022/11/16 09:35:34;;;;;;;;;4.00;3.75;;;;;12.71;67.66;99484.56;6340532;22;46133;-62
2022/11/16 09:37:59;;;;;;;;;6.25;5.50;;;;;12.66;67.65;99480.31;6340942;22;45161;-62
2022/11/16 09:40:34;;;;;;;;;5.25;4.25;;;;;12.68;67.65;99481.13;6338835;22;45581;-62
2022/11/16 09:43:14;;;;;;;;;5.00;2.50;;;;;12.67;67.91;99476.75;6339484;22;45193;-61
2022/11/16 09:46:01;;;;;;;;;2.25;2.25;;;;;12.68;67.93;99478.47;6340163;22;47008;-61
2022/11/16 09:48:27;;;;;;;;;8.75;4.50;;;;;12.66;67.84;99469.78;6340239;22;45242;-61
2022/11/16 09:50:56;;;;;;;;;5.50;3.50;;;;;12.72;67.76;99465.19;6340985;22;45242;-60
2022/11/16 09:53:24;;;;;;;;;3.50;3.00;;;;;12.78;67.61;99459.63;6340638;22;45329;-59
2022/11/16 09:55:52;;;;;;;;;7.25;3.00;;;;;12.77;68.01;99466.69;6340301;22;45898;-61
2022/11/16 09:58:25;;;;;;;;;5.25;3.25;;;;;12.86;68.08;99465.44;6340034;22;45292;-62
2022/11/16 10:01:02;;;;;;;;;6.00;5.50;;;;;12.88;67.67;99455.69;6341039;22;45417;-61
2022/11/16 10:03:34;;;;;;;;;2.50;2.50;;;;;12.89;68.11;99454.72;6340886;22;45176;-62
2022/11/16 10:06:04;;;;;;;;;3.00;2.50;;;;;12.90;68.13;99452.97;6339989;22;45300;-62
2022/11/16 10:08:46;;;;;;;;;4.50;2.00;;;;;12.92;68.00;99459.88;6339079;22;45371;-63
2022/11/16 10:11:42;;;;;;;;;6.00;2.00;;;;;12.97;67.82;99447.34;6340469;22;45235;-61
2022/11/16 10:14:22;;;;;;;;;3.00;3.00;;;;;13.03;67.90;99455.91;6340135;22;45096;-62
2022/11/16 10:17:13;;;;;;;;;6.00;3.75;;;;;13.12;68.11;99444.97;6338245;22;45376;-68
2022/11/16 10:19:57;;;;;;;;;4.25;2.50;;;;;13.18;68.06;99434.09;6339820;22;45207;-61
2022/11/16 10:22:39;;;;;;;;;3.00;3.00;;;;;13.29;68.04;99438.91;6340714;22;45198;-62
2022/11/16 10:25:19;;;;;;;;;3.25;1.25;;;;;13.41;67.47;99451.56;6340269;22;45250;-62
2022/11/16 10:27:56;;;;;;;;;11.25;8.75;;;;;13.41;67.71;99451.56;6340256;22;46186;-63
2022/11/16 10:30:21;;;;;;;;;4.00;3.00;;;;;13.51;67.95;99456.41;6339561;22;45225;-63
2022/11/16 10:32:59;;;;;;;;;4.00;3.00;;;;;13.61;68.11;99441.84;6338581;22;45267;-61
2022/11/16 10:35:31;;;;;;;;;3.00;3.00;;;;;13.64;67.61;99439.91;6340425;22;45207;-62
2022/11/16 10:38:02;;;;;;;;;3.00;2.00;;;;;13.68;67.95;99421.31;6339995;22;45404;-62
2022/11/16 10:40:38;;;;;;;;;1.75;1.75;;;;;13.86;67.40;99441.53;6339894;22;45168;-62
2022/11/16 10:43:13;;;;;;;;;3.75;1.00;;;;;14.01;67.30;99449.63;6340526;22;45317;-64
2022/11/16 10:45:49;;;;;;;;;3.00;1.50;;;;;14.08;67.41;99448.41;6339915;22;45384;-64
2022/11/16 10:48:31;;;;;;;;;4.00;2.00;;;;;14.21;67.47;99443.38;6338806;22;45497;-64
2022/11/16 10:50:56;;;;;;;;;2.00;2.00;;;;;14.24;67.19;99451.16;6339603;22;45320;-66
2022/11/16 10:53:42;;;;;;;;;3.25;2.00;;;;;14.25;67.00;99443.16;6340314;22;45190;-66
2022/11/16 10:56:28;;;;;;;;;1.25;1.25;;;;;14.35;66.91;99437.38;6339054;22;45218;-66
2022/11/16 10:59:02;;;;;;;;;4.50;3.00;;;;;14.35;67.01;99435.63;6339092;22;46390;-66
2022/11/16 11:01:29;;;;;;;;;3.00;2.00;;;;;14.41;66.88;99426.50;6338591;22;45295;-67
2022/11/16 11:03:55;;;;;;;;;3.75;2.75;;;;;14.36;66.38;99428.53;6341143;22;45159;-63
2022/11/16 11:06:26;;;;;;;;;3.25;2.00;;;;;14.50;66.56;99419.91;6341469;22;45370;-63
2022/11/16 11:08:51;;;;;;;;;2.25;2.25;;;;;14.56;66.74;99422.22;6340951;22;45979;-61
2022/11/16 11:14:11;;;;;;;;;3.00;3.00;;;;;14.65;66.56;99413.00;6341673;22;45094;-75
2022/11/16 11:16:37;;;;;;;;;4.00;3.00;;;;;14.63;66.50;99402.47;6341575;22;45551;-74
2022/11/16 11:19:24;;;;;;;;;1.25;1.25;;;;;14.62;66.27;99408.69;6341123;22;46040;-62
2022/11/16 11:21:55;;;;;;;;;2.25;0.50;;;;;14.69;66.39;99409.25;6341619;22;45166;-64
2022/11/16 11:24:20;;;;;;;;;1.50;1.50;;;;;14.77;65.90;99410.56;6341789;22;45270;-64
2022/11/16 11:26:51;;;;;;;;;0.75;0.75;;;;;14.75;65.75;99417.75;6341392;22;45374;-63
2022/11/16 11:29:49;;;;;;;;;3.25;2.50;;;;;14.71;66.39;99402.09;6339555;22;46625;-59
2022/11/16 11:32:18;;;;;;;;;5.50;3.25;;;;;14.71;65.97;99396.81;6328444;22;45697;-59
2022/11/16 11:34:51;;;;;;;;;2.50;1.50;;;;;14.78;65.47;99398.22;6341559;22;45325;-62
2022/11/16 11:37:33;;;;;;;;;6.25;2.75;;;;;14.85;65.51;99393.44;6341932;22;45205;-62
2022/11/16 11:40:14;;;;;;;;;2.25;1.25;;;;;14.83;65.03;99390.88;6340791;22;45339;-62
2022/11/16 11:42:49;;;;;;;;;2.75;1.50;;;;;14.77;65.40;99391.22;6339528;22;45180;-62
2022/11/16 11:45:16;;;;;;;;;7.50;3.00;;;;;14.74;65.68;99391.34;6341567;22;45394;-62
2022/11/16 11:47:54;;;;;;;;;2.25;2.00;;;;;14.71;65.37;99378.31;6341447;22;45395;-63
2022/11/16 11:50:58;;;;;;;;;1.50;1.50;;;;;14.74;65.28;99388.72;6338603;22;48431;-63
2022/11/16 11:53:43;;;;;;;;;0.50;0.50;;;;;14.81;65.10;99381.31;6341514;22;45312;-62
2022/11/16 11:56:11;;;;;;;;;3.00;1.00;;;;;14.85;65.01;99373.13;6340473;22;45243;-62
2022/11/16 11:58:39;;;;;;;;;3.25;1.50;;;;;14.87;65.12;99375.72;6341259;22;45371;-62
2022/11/16 12:01:15;;;;;;;;;5.50;3.25;;;;;14.85;65.18;99370.47;6341302;22;46140;-63
2022/11/16 12:03:49;;;;;;;;;4.25;2.25;;;;;14.85;64.94;99378.41;6339516;22;45334;-60
2022/11/16 12:06:27;;;;;;;;;1.50;1.00;;;;;14.91;64.92;99362.22;6340937;22;45162;-61
2022/11/16 12:09:09;;;;;;;;;5.50;3.25;;;;;14.93;64.75;99365.63;6341089;22;45372;-59
2022/11/16 12:11:53;;;;;;;;;4.25;1.50;;;;;14.93;65.10;99368.28;6327365;22;45428;-61
2022/11/16 12:14:33;;;;;;;;;4.00;3.00;;;;;14.95;64.87;99371.72;6337735;22;45359;-61
2022/11/16 12:17:02;;;;;;;;;0.75;0.75;;;;;15.00;64.88;99381.19;6337788;22;45360;-61
2022/11/16 12:19:27;;;;;;;;;6.00;4.00;;;;;15.06;64.71;99349.09;6337526;22;45832;-61
2022/11/16 12:22:09;;;;;;;;;5.00;4.00;;;;;15.06;64.53;99355.25;6335459;22;48238;-60
2022/11/16 12:24:41;;;;;;;;;3.50;2.00;;;;;15.11;64.75;99353.19;6337869;22;45184;-60
2022/11/16 12:27:25;;;;;;;;;5.75;4.00;;;;;15.20;64.75;99351.00;6337640;22;45348;-59
2022/11/16 12:30:15;;;;;;;;;2.25;2.00;;;;;15.18;64.37;99356.38;6337676;22;45322;-59
2022/11/16 12:33:09;;;;;;;;;3.25;3.00;;;;;15.23;64.03;99349.03;6337732;22;46299;-59
2022/11/16 12:35:50;;;;;;;;;2.75;2.75;;;;;15.26;64.25;99340.91;6338169;22;45234;-62
2022/11/16 12:38:57;;;;;;;;;3.25;1.25;;;;;15.35;63.57;99347.47;6335610;22;45289;-61
2022/11/16 12:41:25;;;;;;;;;4.50;2.25;;;;;15.32;63.97;99342.38;6260069;22;45528;-61
2022/11/16 12:43:53;;;;;;;;;3.25;2.50;;;;;15.33;63.69;99332.63;6326796;22;46109;-61
2022/11/16 12:46:55;;;;;;;;;3.00;2.00;;;;;15.35;63.72;99333.41;6337364;22;45509;-62
2022/11/16 12:49:35;;;;;;;;;5.00;3.00;;;;;15.32;63.71;99322.97;6338141;22;45388;-62
2022/11/16 12:52:06;;;;;;;;;2.75;1.00;;;;;15.40;63.90;99315.47;6337343;22;45334;-53
2022/11/16 12:54:54;;;;;;;;;5.00;2.75;;;;;15.40;63.70;99316.31;6341092;22;46302;-63
2022/11/16 12:57:37;;;;;;;;;1.50;1.00;;;;;15.37;63.27;99326.22;6341121;22;45234;-62
2022/11/16 13:00:06;;;;;;;;;3.50;2.25;;;;;15.39;63.69;99324.34;6341624;22;45250;-63
2022/11/16 13:02:34;;;;;;;;;5.50;4.00;;;;;15.42;63.47;99314.44;6341524;22;45233;-63
2022/11/16 13:05:41;;;;;;;;;4.75;2.25;;;;;15.41;63.09;99325.13;6341197;22;45991;-64
2022/11/16 13:08:42;;;;;;;;;4.50;2.00;;;;;15.39;63.38;99319.03;6310208;22;45422;-63
2022/11/16 13:11:14;;;;;;;;;3.25;2.00;;;;;15.40;63.71;99310.16;6337493;22;45355;-62
2022/11/16 13:13:42;;;;;;;;;3.25;1.75;;;;;15.32;63.63;99307.09;6337062;22;45376;-63
2022/11/16 13:16:09;;;;;;;;;4.75;1.75;;;;;15.27;63.32;99300.28;6335362;22;48408;-62
2022/11/16 13:18:40;;;;;;;;;0.00;0.00;;;;;15.27;63.42;99291.50;6336675;22;45368;-62
2022/11/16 13:21:39;;;;;;;;;1.75;1.75;;;;;15.30;63.67;99293.13;6335310;22;45490;-60
2022/11/16 13:24:32;;;;;;;;;3.50;2.25;;;;;15.32;63.43;99284.16;6337298;22;45417;-57
2022/11/16 13:27:00;;;;;;;;;1.75;1.50;;;;;15.32;63.42;99272.69;6336004;22;45411;-63
2022/11/16 13:29:43;;;;;;;;;4.50;3.00;;;;;15.28;63.44;99267.59;6336583;22;45308;-59
2022/11/16 13:32:17;;;;;;;;;2.50;2.00;;;;;15.32;63.21;99267.41;6335831;22;45415;-63
2022/11/16 13:34:44;;;;;;;;;1.25;0.75;;;;;15.26;63.76;99255.38;6335599;22;45495;-64
2022/11/16 13:37:35;;;;;;;;;3.00;2.25;;;;;15.24;63.80;99250.19;6324806;22;48388;-60
2022/11/16 13:40:00;;;;;;;;;4.75;3.25;;;;;15.24;63.49;99247.53;6328407;22;45391;-60
2022/11/16 13:42:28;;;;;;;;;4.00;1.75;;;;;15.26;63.26;99244.78;6337112;22;45407;-60
2022/11/16 13:45:05;;;;;;;;;4.00;1.25;;;;;15.30;63.36;99238.38;6335111;22;45354;-59
2022/11/16 13:47:31;;;;;;;;;2.00;2.00;;;;;15.26;63.73;99234.22;6334991;22;47879;-58
2022/11/16 13:49:59;;;;;;;;;3.00;1.50;;;;;15.19;63.41;99216.97;6336616;22;45174;-57
2022/11/16 13:52:41;;;;;;;;;1.75;1.00;;;;;15.22;63.28;99230.00;6336644;22;45274;-62
2022/11/16 13:55:26;;;;;;;;;8.50;3.25;;;;;15.18;63.74;99233.78;6336767;22;45401;-66
2022/11/16 13:57:54;;;;;;;;;7.25;1.75;;;;;15.20;63.26;99230.13;6337132;22;45963;-58
2022/11/16 14:00:23;;;;;;;;;4.75;2.25;;;;;15.16;63.54;99238.34;6337567;22;45309;-60
2022/11/16 14:03:10;;;;;;;;;2.50;2.00;;;;;15.18;63.78;99247.88;6336078;22;45354;-65
2022/11/16 14:05:45;;;;;;;;;4.00;2.00;;;;;15.12;63.85;99237.66;6332942;22;45287;-59
2022/11/16 14:08:22;;;;;;;;;5.25;2.75;;;;;15.16;63.40;99233.03;6329082;22;45301;-58
2022/11/16 14:10:51;;;;;;;;;1.75;1.75;;;;;15.15;63.75;99228.69;6335353;22;45290;-59
2022/11/16 14:13:47;;;;;;;;;3.75;3.75;;;;;15.11;63.29;99226.19;6338017;22;45326;-60
2022/11/16 14:16:18;;;;;;;;;3.25;1.25;;;;;15.06;63.51;99217.69;6334668;22;45401;-58
2022/11/16 14:18:45;;;;;;;;;3.00;1.00;;;;;15.06;63.45;99216.84;6336985;22;45302;-58
2022/11/16 14:21:36;;;;;;;;;5.50;2.25;;;;;15.02;63.66;99218.81;6334870;22;45299;-59
2022/11/16 14:24:20;;;;;;;;;3.25;2.50;;;;;15.02;63.83;99207.34;6336805;22;45470;-59
2022/11/16 14:26:48;;;;;;;;;3.75;1.00;;;;;15.00;63.81;99202.16;6336223;22;45564;-58
2022/11/16 14:29:17;;;;;;;;;1.25;1.25;;;;;14.98;63.88;99195.25;6337301;22;46055;-60
2022/11/16 14:31:57;;;;;;;;;4.25;1.75;;;;;14.88;64.14;99197.56;6333062;22;45429;-59
2022/11/16 14:34:38;;;;;;;;;2.50;1.50;;;;;14.84;63.77;99193.38;6336285;22;45273;-59
2022/11/16 14:37:04;;;;;;;;;7.00;3.50;;;;;14.79;63.85;99172.47;6327058;22;45367;-60
2022/11/16 14:39:42;;;;;;;;;2.50;2.50;;;;;14.75;63.98;99168.31;6335884;22;45971;-60
2022/11/16 14:42:21;;;;;;;;;2.75;2.75;;;;;14.72;64.23;99173.78;6335798;22;45298;-59
2022/11/16 14:44:49;;;;;;;;;3.25;2.25;;;;;14.68;63.89;99159.00;6337794;22;45404;-61
2022/11/16 14:47:35;;;;;;;;;4.50;3.00;;;;;14.65;64.27;99160.03;6337528;22;45305;-60
2022/11/16 14:50:01;;;;;;;;;3.25;1.75;;;;;14.61;64.03;99156.69;6336333;22;46134;-60
2022/11/16 14:52:38;;;;;;;;;3.75;1.75;;;;;14.56;64.04;99148.16;6338101;22;45251;-59
2022/11/16 14:55:06;;;;;;;;;8.75;4.00;;;;;14.55;64.51;99138.56;6337925;22;45747;-59
2022/11/16 14:57:32;;;;;;;;;4.50;3.00;;;;;14.49;64.53;99133.59;6337838;22;45372;-61
2022/11/16 15:00:08;;;;;;;;;2.50;1.50;;;;;14.44;64.55;99125.91;6337983;22;45338;-60
2022/11/16 15:02:33;;;;;;;;;5.00;4.00;;;;;14.41;64.25;99119.94;6338275;22;45456;-62
2022/11/16 15:04:59;;;;;;;;;7.25;5.75;;;;;14.37;64.51;99113.16;6335550;22;45686;-63
2022/11/16 15:07:27;;;;;;;;;6.50;4.25;;;;;14.30;64.36;99107.31;6327493;22;45403;-64
2022/11/16 15:09:58;;;;;;;;;11.50;9.50;;;;;14.28;64.17;99102.13;6324306;22;45819;-65
2022/11/16 15:12:41;;;;;;;;;10.25;7.50;;;;;14.25;64.50;99099.69;6334046;22;45753;-64
2022/11/16 15:15:10;;;;;;;;;10.00;6.25;;;;;14.21;64.36;99092.84;6338145;22;45431;-63
2022/11/16 15:17:40;;;;;;;;;8.00;6.25;;;;;14.14;64.43;99075.66;6338490;22;45321;-64
2022/11/16 15:20:30;;;;;;;;;5.50;4.25;;;;;14.09;64.77;99075.88;6337856;22;46336;-63
2022/11/16 15:22:57;;;;;;;;;5.50;2.25;;;;;14.06;64.94;99064.63;6329470;22;45289;-63
2022/11/16 15:25:39;;;;;;;;;3.50;3.50;;;;;14.03;65.13;99048.97;6339398;22;45252;-64
2022/11/16 15:28:12;;;;;;;;;5.00;3.25;;;;;13.89;65.01;99024.19;6308961;22;45284;-65
2022/11/16 15:30:39;;;;;;;;;5.50;4.75;;;;;13.93;65.08;99033.63;6338733;22;45265;-63
2022/11/16 15:33:13;;;;;;;;;11.25;4.75;;;;;13.91;65.40;99021.44;6336572;22;45354;-65
2022/11/16 15:35:39;;;;;;;;;4.00;3.00;;;;;13.85;65.26;98996.25;6338458;22;45287;-61
2022/11/16 15:38:07;;;;;;;;;4.50;3.50;;;;;13.86;65.28;98997.97;6325681;22;45713;-63
2022/11/16 15:40:33;;;;;;;;;5.25;3.50;;;;;13.80;65.90;98993.00;6338541;22;46307;-62
2022/11/16 15:43:01;;;;;;;;;6.00;5.00;;;;;13.80;66.04;98987.72;6337203;22;45639;-65
2022/11/16 15:45:28;;;;;;;;;4.75;3.00;;;;;13.77;65.86;99001.09;6338476;22;45424;-63
2022/11/16 15:47:57;;;;;;;;;8.25;5.00;;;;;13.73;66.14;98987.19;6337830;22;45328;-63
2022/11/16 15:50:23;;;;;;;;;8.00;3.50;;;;;13.73;65.77;98987.19;6335403;22;48067;-63
2022/11/16 15:52:54;;;;;;;;;6.25;4.00;;;;;13.67;66.02;98974.34;6336490;22;46200;-63
2022/11/16 15:55:38;;;;;;;;;3.50;3.25;;;;;13.67;66.18;98976.13;6338164;22;45353;-63
2022/11/16 15:58:13;;;;;;;;;5.25;4.75;;;;;13.64;66.22;98951.59;6337364;22;45369;-67
2022/11/16 16:00:40;;;;;;;;;6.25;4.25;;;;;13.65;66.44;98945.41;6338237;22;46152;-64
2022/11/16 16:03:19;;;;;;;;;6.75;5.00;;;;;13.69;66.08;98942.59;6337783;22;45402;-64
2022/11/16 16:05:45;;;;;;;;;7.25;5.00;;;;;13.63;66.48;98936.72;6337605;22;45828;-75
2022/11/16 16:08:35;;;;;;;;;7.00;5.50;;;;;13.63;66.60;98931.44;6326276;22;45297;-64
2022/11/16 16:11:18;;;;;;;;;4.00;3.25;;;;;13.61;66.31;98922.75;6331118;22;46120;-62
2022/11/16 16:13:56;;;;;;;;;5.00;5.00;;;;;13.56;66.85;98922.16;6337707;22;45328;-72
2022/11/16 16:16:27;;;;;;;;;5.75;5.00;;;;;13.61;66.73;98928.03;6337741;22;45223;-72
2022/11/16 16:19:00;;;;;;;;;8.75;6.00;;;;;13.55;66.49;98909.06;6337254;22;45681;-68
2022/11/16 16:21:40;;;;;;;;;6.50;3.00;;;;;13.60;66.88;98912.28;6335933;22;45791;-71
2022/11/16 16:24:08;;;;;;;;;5.00;4.00;;;;;13.55;66.49;98904.63;6335768;22;45805;-66
2022/11/16 16:26:33;;;;;;;;;5.75;5.75;;;;;13.51;66.75;98889.91;6334641;22;45531;-63
2022/11/16 16:28:59;;;;;;;;;8.00;5.75;;;;;13.52;66.74;98888.97;6334718;22;45471;-64
2022/11/16 16:31:24;;;;;;;;;5.25;5.00;;;;;13.54;66.64;98892.34;6336537;22;54342;-62
2022/11/16 16:33:49;;;;;;;;;10.25;9.00;;;;;13.51;67.18;98895.19;6337858;22;45353;-62
2022/11/16 16:36:15;;;;;;;;;7.00;4.00;;;;;13.44;67.06;98881.47;6338325;22;45341;-62
2022/11/16 16:38:41;;;;;;;;;6.50;4.75;;;;;13.45;67.23;98874.41;6326535;22;45412;-62
2022/11/16 16:41:07;;;;;;;;;10.25;5.25;;;;;13.43;67.37;98879.78;6335294;22;48040;-62
2022/11/16 16:43:33;;;;;;;;;8.00;5.75;;;;;13.42;67.32;98882.47;6337394;22;45802;-62
2022/11/16 16:45:59;;;;;;;;;7.00;5.00;;;;;13.39;67.62;98872.94;6336275;22;45300;-62
2022/11/16 16:48:25;;;;;;;;;8.00;6.75;;;;;13.36;67.66;98856.41;6336982;22;45598;-58
2022/11/16 16:50:50;;;;;;;;;10.75;8.25;;;;;13.33;67.17;98846.88;6338043;22;45340;-57
2022/11/16 16:53:16;;;;;;;;;8.50;6.00;;;;;13.30;67.66;98839.16;6337240;22;45577;-57
2022/11/16 16:55:42;;;;;;;;;7.00;6.00;;;;;13.17;67.68;98804.69;6335094;22;45304;-57
2022/11/16 16:58:10;;;;;;;;;7.25;6.25;;;;;13.27;67.63;98842.81;6338253;22;45301;-58
2022/11/16 17:00:36;;;;;;;;;9.00;7.00;;;;;13.24;67.35;98823.66;6339970;22;46251;-57
2022/11/16 17:03:01;;;;;;;;;7.25;6.25;;;;;13.22;67.93;98828.16;6339288;22;45706;-58
2022/11/16 17:05:29;;;;;;;;;7.50;4.00;;;;;13.18;67.26;98845.94;6341176;22;45175;-58
2022/11/16 17:07:55;;;;;;;;;7.50;5.00;;;;;13.15;67.24;98830.28;6339640;22;45404;-57
2022/11/16 17:10:21;;;;;;;;;5.75;4.50;;;;;13.14;67.59;98840.00;6340726;22;46000;-57
2022/11/16 17:12:47;;;;;;;;;7.75;4.50;;;;;13.12;67.70;98819.94;6341105;22;45240;-57
2022/11/16 17:15:12;;;;;;;;;3.25;3.25;;;;;13.11;68.27;98807.69;6340931;22;45248;-57
2022/11/16 17:17:41;;;;;;;;;8.75;6.00;;;;;13.09;68.10;98786.63;6341579;22;45167;-61
2022/11/16 17:20:07;;;;;;;;;6.00;6.00;;;;;13.06;68.06;98796.53;6339073;22;45471;-57
2022/11/16 17:22:34;;;;;;;;;5.00;4.00;;;;;13.05;68.18;98789.56;6340815;22;45244;-57
2022/11/16 17:24:59;;;;;;;;;4.50;4.50;;;;;12.99;68.55;98783.69;6338831;22;45274;-57
2022/11/16 17:27:25;;;;;;;;;5.00;4.00;;;;;12.98;68.47;98770.56;6340520;22;45320;-59
2022/11/16 17:29:51;;;;;;;;;4.25;4.00;;;;;12.92;68.06;98787.59;6340948;22;45897;-58
2022/11/16 17:32:16;;;;;;;;;7.00;4.00;;;;;12.87;68.14;98776.44;6341557;22;45151;-58
2022/11/16 17:34:42;;;;;;;;;7.50;4.75;;;;;12.85;68.53;98786.22;6341020;22;45178;-58
2022/11/16 17:37:08;;;;;;;;;5.50;4.75;;;;;12.84;68.81;98771.31;6339325;22;45194;-59
2022/11/16 17:39:34;;;;;;;;;7.00;3.50;;;;;12.79;69.01;98763.69;6341090;22;45242;-58
2022/11/16 17:41:59;;;;;;;;;5.75;5.00;;;;;12.79;68.96;98768.97;6340516;22;45245;-58
2022/11/16 17:44:25;;;;;;;;;4.50;4.25;;;;;12.76;68.52;98758.56;6341406;22;45223;-58